Terminal Aerodrome Forecast
Issued by NWS

Home | Current Version | Previous Version | Text Only | Print | Product List | Glossary On
Versions: 1 2 3 4 5 6 7 8 9 10 11 12
000
FTUS44 KTSA 211140
TAFFYV
TAF
KFYV 211140Z 2112/2212 17011G19KT P6SM BKN025 WS020/19040KT
     FM211500 18013G22KT P6SM SCT018 BKN025
     FM212000 18014G23KT P6SM SCT025 BKN035
     FM220400 17012G19KT P6SM VCTS BKN025CB
     FM220500 VRB10G20KT 3SM TSRA BKN025CB
      TEMPO 2205/2207 VRB20G35KT 1SM +TSRA BKN015CB
     FM220700 30014KT 5SM -TSRA BKN025CB
     FM221000 32011KT 4SM -RA BR BKN010=

USA.gov is the U.S. government's official web portal to all federal, state and local government web resources and services.